Cocos Island, Australian Islands

2:18 PM CCT on October 31, 2014 (GMT +0630)
Trannies Beach | Change Station
CLOSE
Current Station
Personal Weather Station
Location: Cocos (Keeling) Islands,
Elevation: 36 ft
Nearby Weather Stations

Elev 36 ft 12.14 °S, 96.82 °E | Updated 1 minute ago

Mostly Cloudy
Mostly Cloudy
82.9 °F
Feels Like 87 °F
N
7.0
Wind Variable Wind from SE
Gusts 15.0 mph

Today
High -- | Low -- °F
--% Chance of Precip.
Yesterday
High -- | Low -- °F
Precip. -- in
5:30 AM 6:02 PM
First Quarter, 52% visible
Pressure 29.83 in
Visibility 6.2 miles
Clouds Few 2400 ft
Mostly Cloudy 40000 ft
Heat Index 87 °F
Dew Point 70 °F
Humidity 66%
Rainfall 0.00 in
Snow Depth Not available.
UV 6 out of 12
Pollen Not available.
Air Quality Not available.
Flu Activity Not available.
METAR YPCC 310730Z 12016KT 9999 FEW024 BKN400 28/22 Q1010

More Conditions Fewer Conditions

Pressure 29.83 in
Visibility 6.2 miles
Clouds Few 2400 ft
Mostly Cloudy 40000 ft
Heat Index 87 °F
Dew Point 70 °F
Humidity 66%
Rainfall 0.00 in
Snow Depth Not available.
UV 6 out of 12
Pollen Not available.
Air Quality Not available.
Flu Activity Not available.
METAR YPCC 310730Z 12016KT 9999 FEW024 BKN400 28/22 Q1010

More Conditions Fewer Conditions

10-Day Weather Forecast

Almanac

Astronomy

Oct. 31, 2014 Rise Set
Actual Time
Civil Twilight
Nautical Twilight
Astronomical Twilight
Moon
Length of Visible Light
Length of Day
Tomorrow will be .
, % of the Moon is Illuminated

Today's Extremes

Country Highs Country Lows

Community

WunderPhotos

Upload Photos

1,766,573 photos uploaded!

WunderBlogs® & News

Nearby

Air Quality

  Air Quality AQ Index Pollutant
Not available.

Snow Depth

Station Depth Elevation

Earthquake Activity

City Distance Mag. Time & Date
Minimum magnitude displayed is 2.5.

Coastal Water Temperatures

Place Temperature

Nearby Weather Stations